createdAt,value
2023-01-29T00:00:43.842Z,100566.96
2023-01-29T00:03:32.496Z,100567.67
2023-01-29T00:06:00.992Z,100566.98
2023-01-29T00:08:29.050Z,100563.27
2023-01-29T00:11:04.536Z,100567.88
2023-01-29T00:13:32.738Z,100571.63
2023-01-29T00:16:01.719Z,100568.88
2023-01-29T00:18:30.347Z,100567.12
2023-01-29T00:20:58.571Z,100570.98
2023-01-29T00:23:28.096Z,100573.06
2023-01-29T00:25:59.492Z,100578.58
2023-01-29T00:28:27.647Z,100577.58
2023-01-29T00:30:55.802Z,100584.10
2023-01-29T00:33:26.297Z,100589.12
2023-01-29T00:35:54.272Z,100592.76
2023-01-29T00:38:22.214Z,100591.89
2023-01-29T00:41:09.651Z,100589.90
2023-01-29T00:43:56.311Z,100589.07
2023-01-29T00:46:25.884Z,100588.73
2023-01-29T00:48:53.952Z,100590.80
2023-01-29T00:51:21.941Z,100591.83
2023-01-29T00:53:50.016Z,100592.04
2023-01-29T00:56:20.153Z,100592.81
2023-01-29T00:58:48.717Z,100597.09
2023-01-29T01:01:36.868Z,100601.70
2023-01-29T01:04:05.299Z,100599.29
2023-01-29T01:06:33.433Z,100595.70
2023-01-29T01:09:20.272Z,100597.39
2023-01-29T01:11:48.402Z,100599.39
2023-01-29T01:14:25.931Z,100604.11
2023-01-29T01:16:56.991Z,100608.60
2023-01-29T01:19:25.214Z,100614.30
2023-01-29T01:21:53.385Z,100612.34
2023-01-29T01:24:21.607Z,100611.65
2023-01-29T01:26:49.700Z,100611.23
2023-01-29T01:29:20.109Z,100605.66
2023-01-29T01:31:48.288Z,100607.27
2023-01-29T01:34:16.527Z,100614.94
2023-01-29T01:36:46.132Z,100610.08
2023-01-29T01:39:14.634Z,100609.75
2023-01-29T01:41:45.302Z,100608.75
2023-01-29T01:44:38.164Z,100608.66
2023-01-29T01:47:11.808Z,100611.23
2023-01-29T01:49:40.718Z,100615.43
2023-01-29T01:52:31.078Z,100617.88
2023-01-29T01:55:00.480Z,100620.60
2023-01-29T01:57:33.065Z,100621.73
2023-01-29T02:00:11.437Z,100627.73
2023-01-29T02:03:02.468Z,100630.41
2023-01-29T02:05:51.538Z,100629.50
2023-01-29T02:09:02.575Z,100631.90
2023-01-29T02:11:36.193Z,100640.86
2023-01-29T02:14:04.441Z,100642.02
2023-01-29T02:16:38.074Z,100643.65
2023-01-29T02:19:17.270Z,100649.20
2023-01-29T02:21:45.242Z,100653.23
2023-01-29T02:24:17.936Z,100657.03
2023-01-29T02:26:52.964Z,100658.73
2023-01-29T02:29:34.882Z,100656.20
2023-01-29T02:32:14.348Z,100664.21
2023-01-29T02:35:24.110Z,100660.46
2023-01-29T02:38:20.567Z,100665.13
2023-01-29T02:40:49.454Z,100669.41
2023-01-29T02:43:35.810Z,100671.90
2023-01-29T02:46:12.524Z,100676.39
2023-01-29T02:48:44.241Z,100681.69
2023-01-29T02:51:20.764Z,100680.79
2023-01-29T02:54:10.939Z,100681.51
2023-01-29T02:56:45.981Z,100684.48
2023-01-29T02:59:36.547Z,100693.05
2023-01-29T03:02:10.572Z,100692.73
2023-01-29T03:04:43.335Z,100696.98
2023-01-29T03:07:35.888Z,100697.02
2023-01-29T03:10:08.186Z,100699.34
2023-01-29T03:12:39.237Z,100695.67
2023-01-29T03:15:17.152Z,100697.08
2023-01-29T03:17:54.135Z,100696.88
2023-01-29T03:20:26.665Z,100695.44
2023-01-29T03:22:58.135Z,100693.77
2023-01-29T03:25:47.317Z,100699.27
2023-01-29T03:28:37.360Z,100702.13
2023-01-29T03:31:28.867Z,100697.77
2023-01-29T03:34:16.526Z,100697.71
2023-01-29T03:36:55.931Z,100695.86
2023-01-29T03:39:28.769Z,100693.44
2023-01-29T03:42:02.918Z,100693.62
2023-01-29T03:44:34.177Z,100698.23
2023-01-29T03:47:19.594Z,100701.83
2023-01-29T03:49:55.330Z,100700.00
2023-01-29T03:52:37.665Z,100698.55
2023-01-29T03:55:23.280Z,100696.52
2023-01-29T03:57:51.664Z,100696.91
2023-01-29T04:00:48.665Z,100700.40
2023-01-29T04:03:24.879Z,100702.80
2023-01-29T04:05:58.615Z,100701.36
2023-01-29T04:08:32.864Z,100702.47
2023-01-29T04:11:08.694Z,100710.52
2023-01-29T04:13:37.408Z,100709.51
2023-01-29T04:16:23.041Z,100712.06
2023-01-29T04:19:10.681Z,100708.59
2023-01-29T04:21:43.144Z,100711.88
2023-01-29T04:24:12.721Z,100715.80
2023-01-29T04:26:43.929Z,100716.35
2023-01-29T04:29:30.878Z,100716.86
2023-01-29T04:32:05.896Z,100717.95
2023-01-29T04:34:45.133Z,100720.48
2023-01-29T04:37:20.000Z,100723.39
2023-01-29T04:39:55.374Z,100723.33
2023-01-29T04:42:44.233Z,100720.98
2023-01-29T04:45:25.698Z,100717.02
2023-01-29T04:48:07.677Z,100718.95
2023-01-29T04:50:39.136Z,100717.85
2023-01-29T04:53:15.613Z,100719.31
2023-01-29T04:55:52.783Z,100719.47
2023-01-29T04:58:31.426Z,100720.21
2023-01-29T05:01:01.152Z,100718.14
2023-01-29T05:03:30.147Z,100718.02
2023-01-29T05:06:02.716Z,100719.22
2023-01-29T05:08:44.019Z,100719.59
2023-01-29T05:11:34.578Z,100720.45
2023-01-29T05:14:06.061Z,100717.56
2023-01-29T05:17:06.686Z,100720.22
2023-01-29T05:19:37.713Z,100724.02
2023-01-29T05:22:09.163Z,100729.11
2023-01-29T05:24:37.806Z,100729.64
2023-01-29T05:27:45.291Z,100732.91
2023-01-29T05:30:23.551Z,100737.61
2023-01-29T05:32:59.102Z,100738.62
2023-01-29T05:35:28.659Z,100738.99
2023-01-29T05:37:57.175Z,100741.05
2023-01-29T05:40:25.484Z,100737.55
2023-01-29T05:42:56.779Z,100738.40
2023-01-29T05:45:27.049Z,100744.44
2023-01-29T05:47:58.837Z,100746.23
2023-01-29T05:50:27.432Z,100749.15
2023-01-29T05:53:02.330Z,100750.98
2023-01-29T05:55:30.410Z,100751.15
2023-01-29T05:57:58.626Z,100746.63
2023-01-29T06:00:26.961Z,100743.69
2023-01-29T06:03:01.044Z,100747.02
2023-01-29T06:05:29.063Z,100748.00
2023-01-29T06:07:57.097Z,100747.77
2023-01-29T06:10:25.257Z,100746.45
2023-01-29T06:12:53.312Z,100747.58
2023-01-29T06:15:21.367Z,100745.34
2023-01-29T06:17:54.954Z,100747.42
2023-01-29T06:20:23.721Z,100742.85
2023-01-29T06:22:52.921Z,100743.08
2023-01-29T06:25:20.884Z,100746.02
2023-01-29T06:27:53.242Z,100745.09
2023-01-29T06:30:23.836Z,100746.33
2023-01-29T06:32:55.699Z,100747.89
2023-01-29T06:35:23.683Z,100755.32
2023-01-29T06:37:54.503Z,100759.38
2023-01-29T06:40:25.236Z,100763.59
2023-01-29T06:42:53.210Z,100767.02
2023-01-29T06:45:23.461Z,100767.98
2023-01-29T06:47:51.572Z,100770.09
2023-01-29T06:50:19.705Z,100772.88
2023-01-29T06:52:51.813Z,100775.81
2023-01-29T06:55:19.777Z,100772.45
2023-01-29T06:57:47.935Z,100776.39
2023-01-29T07:00:17.888Z,100776.64
2023-01-29T07:02:51.808Z,100779.59
2023-01-29T07:05:27.526Z,100782.95
2023-01-29T07:07:57.874Z,100788.13
2023-01-29T07:10:27.188Z,100786.70
2023-01-29T07:12:55.376Z,100785.48
2023-01-29T07:15:27.385Z,100786.70
2023-01-29T07:17:59.210Z,100787.48
2023-01-29T07:20:28.558Z,100791.77
2023-01-29T07:22:57.281Z,100789.89
2023-01-29T07:25:42.104Z,100790.27
2023-01-29T07:28:12.065Z,100792.59
2023-01-29T07:30:47.734Z,100790.85
2023-01-29T07:33:18.415Z,100797.53
2023-01-29T07:35:56.534Z,100803.54
2023-01-29T07:38:31.607Z,100804.42
2023-01-29T07:41:10.448Z,100808.14
2023-01-29T07:43:43.009Z,100812.05
2023-01-29T07:46:16.840Z,100809.77
2023-01-29T07:48:46.061Z,100809.23
2023-01-29T07:51:14.139Z,100810.82
2023-01-29T07:53:47.474Z,100811.02
2023-01-29T07:56:24.490Z,100810.18
2023-01-29T07:58:54.719Z,100810.39
2023-01-29T08:01:25.317Z,100807.45
2023-01-29T08:04:02.745Z,100809.23
2023-01-29T08:06:35.685Z,100808.52
2023-01-29T08:09:03.873Z,100804.95
2023-01-29T08:11:31.973Z,100801.70
2023-01-29T08:14:03.154Z,100803.70
2023-01-29T08:16:31.627Z,100801.83
2023-01-29T08:19:02.370Z,100803.38
2023-01-29T08:21:30.340Z,100804.63
2023-01-29T08:23:58.586Z,100802.87
2023-01-29T08:26:31.282Z,100805.73
2023-01-29T08:29:01.594Z,100803.36
2023-01-29T08:31:35.630Z,100804.99
2023-01-29T08:34:06.292Z,100810.20
2023-01-29T08:36:34.971Z,100813.16
2023-01-29T08:39:05.150Z,100810.75
2023-01-29T08:41:34.040Z,100814.95
2023-01-29T08:44:04.478Z,100815.61
2023-01-29T08:46:32.468Z,100821.49
2023-01-29T08:49:09.644Z,100814.30
2023-01-29T08:51:37.673Z,100811.44
2023-01-29T08:54:05.651Z,100811.23
2023-01-29T08:56:34.877Z,100814.63
2023-01-29T08:59:05.493Z,100819.70
2023-01-29T09:01:36.314Z,100820.25
2023-01-29T09:04:06.669Z,100821.65
2023-01-29T09:06:35.100Z,100820.09
2023-01-29T09:09:12.209Z,100823.30
2023-01-29T09:11:47.875Z,100826.81
2023-01-29T09:14:29.563Z,100832.15
2023-01-29T09:17:02.935Z,100828.54
2023-01-29T09:20:03.111Z,100830.55
2023-01-29T09:22:39.220Z,100827.92
2023-01-29T09:25:20.154Z,100826.29
2023-01-29T09:27:50.161Z,100821.95
2023-01-29T09:30:28.633Z,100827.70
2023-01-29T09:32:56.891Z,100833.73
2023-01-29T09:35:24.974Z,100834.80
2023-01-29T09:37:53.097Z,100837.80
2023-01-29T09:40:27.008Z,100839.25
2023-01-29T09:43:02.965Z,100838.90
2023-01-29T09:45:31.647Z,100833.50
2023-01-29T09:48:11.337Z,100832.92
2023-01-29T09:50:42.019Z,100832.29
2023-01-29T09:53:40.634Z,100831.31
2023-01-29T09:56:36.367Z,100830.12
2023-01-29T09:59:18.777Z,100834.79
2023-01-29T10:02:01.295Z,100842.27
2023-01-29T10:04:48.346Z,100844.52
2023-01-29T10:07:41.900Z,100846.48
2023-01-29T10:10:40.895Z,100852.19
2023-01-29T10:13:41.812Z,100845.10
2023-01-29T10:16:26.394Z,100846.07
2023-01-29T10:19:10.613Z,100853.23
2023-01-29T10:21:53.214Z,100857.78
2023-01-29T10:24:26.182Z,100865.08
2023-01-29T10:26:55.381Z,100860.32
2023-01-29T10:29:24.199Z,100862.98
2023-01-29T10:32:15.125Z,100859.70
2023-01-29T10:34:47.489Z,100860.14
2023-01-29T10:37:23.969Z,100856.56
2023-01-29T10:39:54.434Z,100856.47
2023-01-29T10:42:27.058Z,100861.80
2023-01-29T10:44:55.050Z,100863.35
2023-01-29T10:47:27.564Z,100856.33
2023-01-29T10:50:22.007Z,100858.20
2023-01-29T10:53:40.692Z,100852.22
2023-01-29T10:56:29.919Z,100851.32
2023-01-29T10:59:21.131Z,100851.40
2023-01-29T11:01:53.336Z,100846.31
2023-01-29T11:04:21.489Z,100846.29
2023-01-29T11:07:10.241Z,100845.39
2023-01-29T11:09:49.906Z,100841.63
2023-01-29T11:12:34.115Z,100838.20
2023-01-29T11:15:23.793Z,100830.30
2023-01-29T11:18:11.595Z,100826.35
2023-01-29T11:20:40.457Z,100823.62
2023-01-29T11:23:29.601Z,100824.72
2023-01-29T11:25:58.564Z,100816.65
2023-01-29T11:28:40.092Z,100817.11
2023-01-29T11:31:20.415Z,100814.16
2023-01-29T11:33:49.027Z,100812.42
2023-01-29T11:37:16.522Z,100807.78
2023-01-29T11:43:14.122Z,100798.52
2023-01-29T11:45:42.188Z,100802.11
2023-01-29T11:48:56.452Z,100798.82
2023-01-29T11:55:49.843Z,100799.39
2023-01-29T12:05:40.008Z,100786.25
2023-01-29T12:14:25.075Z,100793.73
2023-01-29T12:14:34.544Z,100795.21
2023-01-29T12:17:26.485Z,100793.73
2023-01-29T12:20:28.287Z,100792.26
2023-01-29T12:26:44.629Z,100785.33
2023-01-29T12:29:14.531Z,100788.48
2023-01-29T12:31:42.547Z,100789.14
2023-01-29T12:38:03.333Z,100780.40
2023-01-29T12:40:55.339Z,100778.10
2023-01-29T12:43:38.660Z,100779.28
2023-01-29T12:46:09.263Z,100779.13
2023-01-29T12:48:39.558Z,100779.91
2023-01-29T12:51:12.807Z,100783.05
2023-01-29T12:53:58.724Z,100776.04
2023-01-29T13:00:55.792Z,100781.08
2023-01-29T13:03:52.382Z,100780.89
2023-01-29T13:10:01.576Z,100779.24
2023-01-29T13:12:41.400Z,100780.16
2023-01-29T13:15:25.008Z,100783.09
2023-01-29T13:17:58.525Z,100784.44
2023-01-29T13:20:31.113Z,100782.15
2023-01-29T13:23:13.032Z,100789.96
2023-01-29T13:25:42.278Z,100787.51
2023-01-29T13:28:27.399Z,100782.66
2023-01-29T13:31:28.408Z,100786.73
2023-01-29T13:34:02.795Z,100780.77
2023-01-29T13:36:31.421Z,100776.88
2023-01-29T13:39:04.499Z,100768.97
2023-01-29T13:41:42.754Z,100765.56
2023-01-29T13:44:20.675Z,100766.36
2023-01-29T13:46:54.638Z,100778.10
2023-01-29T13:49:26.227Z,100766.81
2023-01-29T13:51:54.455Z,100773.66
2023-01-29T13:54:27.194Z,100772.23
2023-01-29T13:56:55.133Z,100768.25
2023-01-29T13:59:25.093Z,100770.00
2023-01-29T14:01:53.348Z,100764.33
2023-01-29T14:04:35.415Z,100761.94
2023-01-29T14:07:23.431Z,100757.70
2023-01-29T14:10:12.097Z,100758.43
2023-01-29T14:12:45.857Z,100760.89
2023-01-29T14:15:21.001Z,100758.92
2023-01-29T14:17:57.660Z,100755.31
2023-01-29T14:20:39.108Z,100757.31
2023-01-29T14:23:36.864Z,100760.61
2023-01-29T14:26:06.727Z,100764.70
2023-01-29T14:28:35.493Z,100762.42
2023-01-29T14:31:07.636Z,100762.33
2023-01-29T14:33:41.732Z,100767.08
2023-01-29T14:36:14.992Z,100763.59
2023-01-29T14:38:48.106Z,100761.42
2023-01-29T14:41:19.135Z,100756.89
2023-01-29T14:43:47.473Z,100757.46
2023-01-29T14:46:37.905Z,100761.72
2023-01-29T14:49:07.884Z,100763.52
2023-01-29T14:51:38.412Z,100766.69
2023-01-29T14:54:26.932Z,100770.96
2023-01-29T14:56:58.418Z,100769.84
2023-01-29T14:59:44.088Z,100772.67
2023-01-29T15:02:37.222Z,100771.17
2023-01-29T15:05:08.383Z,100775.63
2023-01-29T15:07:36.660Z,100773.84
2023-01-29T15:10:21.359Z,100775.69
2023-01-29T15:13:00.675Z,100773.90
2023-01-29T15:15:28.752Z,100769.56
2023-01-29T15:18:00.118Z,100766.88
2023-01-29T15:20:30.187Z,100763.04
2023-01-29T15:22:58.601Z,100769.58
2023-01-29T15:25:28.296Z,100767.42
2023-01-29T15:27:58.575Z,100766.67
2023-01-29T15:30:29.823Z,100764.61
2023-01-29T15:33:02.156Z,100758.91
2023-01-29T15:35:37.912Z,100757.44
2023-01-29T15:38:22.054Z,100759.95
2023-01-29T15:40:56.788Z,100754.17
2023-01-29T15:43:26.169Z,100753.69
2023-01-29T15:45:57.029Z,100756.69
2023-01-29T15:48:32.821Z,100757.09
2023-01-29T15:51:01.445Z,100763.83
2023-01-29T15:53:34.833Z,100771.36
2023-01-29T15:56:07.969Z,100773.35
2023-01-29T15:58:36.112Z,100772.98
2023-01-29T16:01:04.196Z,100776.50
2023-01-29T16:03:33.568Z,100779.29
2023-01-29T16:06:02.404Z,100780.58
2023-01-29T16:08:30.692Z,100783.40
2023-01-29T16:11:00.854Z,100781.93
2023-01-29T16:13:34.913Z,100777.59
2023-01-29T16:16:08.596Z,100776.83
2023-01-29T16:18:54.159Z,100775.10
2023-01-29T16:21:33.293Z,100778.38
2023-01-29T16:24:09.780Z,100777.05
2023-01-29T16:26:42.399Z,100776.94
2023-01-29T16:29:12.074Z,100775.95
2023-01-29T16:31:42.168Z,100777.98
2023-01-29T16:34:14.687Z,100776.66
2023-01-29T16:37:07.816Z,100779.88
2023-01-29T16:39:53.007Z,100780.95
2023-01-29T16:42:22.993Z,100778.97
2023-01-29T16:45:07.747Z,100783.11
2023-01-29T16:47:42.264Z,100785.70
2023-01-29T16:50:40.701Z,100785.65
2023-01-29T16:53:17.617Z,100785.52
2023-01-29T16:55:49.556Z,100792.38
2023-01-29T16:58:24.778Z,100794.90
2023-01-29T17:01:13.371Z,100796.77
2023-01-29T17:03:43.841Z,100801.76
2023-01-29T17:06:13.301Z,100804.69
2023-01-29T17:08:42.523Z,100807.45
2023-01-29T17:11:13.889Z,100809.55
2023-01-29T17:13:43.654Z,100811.55
2023-01-29T17:16:16.379Z,100808.32
2023-01-29T17:18:44.425Z,100814.55
2023-01-29T17:21:12.582Z,100816.95
2023-01-29T17:23:40.762Z,100813.56
2023-01-29T17:26:11.849Z,100810.92
2023-01-29T17:28:41.016Z,100810.48
2023-01-29T17:31:09.489Z,100811.99
2023-01-29T17:33:40.731Z,100813.66
2023-01-29T17:36:13.373Z,100811.26
2023-01-29T17:38:41.665Z,100809.19
2023-01-29T17:41:28.114Z,100806.67
2023-01-29T17:43:56.266Z,100804.88
2023-01-29T17:46:26.110Z,100798.84
2023-01-29T17:48:54.171Z,100802.70
2023-01-29T17:51:24.660Z,100804.98
2023-01-29T17:53:53.179Z,100802.81
2023-01-29T17:56:29.701Z,100805.86
2023-01-29T17:58:59.033Z,100805.81
2023-01-29T18:01:30.073Z,100800.48
2023-01-29T18:03:58.374Z,100799.40
2023-01-29T18:06:30.098Z,100800.98
2023-01-29T18:08:59.796Z,100802.73
2023-01-29T18:11:28.255Z,100804.26
2023-01-29T18:13:56.708Z,100805.58
2023-01-29T18:16:28.177Z,100803.73
2023-01-29T18:18:57.784Z,100803.31
2023-01-29T18:21:28.863Z,100799.17
2023-01-29T18:24:01.377Z,100799.39
2023-01-29T18:26:39.331Z,100800.33
2023-01-29T18:29:12.060Z,100798.65
2023-01-29T18:31:43.576Z,100796.35
2023-01-29T18:34:17.225Z,100792.05
2023-01-29T18:37:08.536Z,100791.54
2023-01-29T18:39:51.243Z,100787.77
2023-01-29T18:42:25.548Z,100787.73
2023-01-29T18:45:08.879Z,100790.77
2023-01-29T18:47:37.163Z,100787.73
2023-01-29T18:50:09.358Z,100788.14
2023-01-29T18:52:42.748Z,100783.90
2023-01-29T18:55:16.327Z,100786.98
2023-01-29T18:58:29.325Z,100786.26
2023-01-29T19:00:43.175Z,100780.90
2023-01-29T19:03:23.915Z,100782.85
2023-01-29T19:10:07.197Z,100782.52
2023-01-29T19:13:05.788Z,100781.25
2023-01-29T19:15:38.719Z,100785.61
2023-01-29T19:18:18.332Z,100788.39
2023-01-29T19:20:50.240Z,100780.64
2023-01-29T19:23:18.725Z,100779.23
2023-01-29T19:25:50.815Z,100779.45
2023-01-29T19:28:20.202Z,100779.13
2023-01-29T19:30:48.979Z,100780.54
2023-01-29T19:33:17.126Z,100778.33
2023-01-29T19:39:24.390Z,100769.13
2023-01-29T19:42:00.559Z,100765.64
2023-01-29T19:44:30.656Z,100765.43
2023-01-29T19:47:13.851Z,100763.42
2023-01-29T19:49:49.895Z,100762.79
2023-01-29T19:52:51.426Z,100767.92
2023-01-29T19:55:41.667Z,100765.60
2023-01-29T20:01:52.811Z,100762.38
2023-01-29T20:05:16.141Z,100759.29
2023-01-29T20:07:45.497Z,100752.83
2023-01-29T20:10:37.305Z,100747.81
2023-01-29T20:13:30.548Z,100744.27
2023-01-29T20:15:58.314Z,100748.64
2023-01-29T20:18:29.349Z,100747.23
2023-01-29T20:21:05.247Z,100742.56
2023-01-29T20:23:38.649Z,100746.66
2023-01-29T20:26:39.344Z,100746.47
2023-01-29T20:29:28.111Z,100743.33
2023-01-29T20:51:33.579Z,100741.73
2023-01-29T20:58:05.752Z,100740.95
2023-01-29T21:00:33.074Z,100740.46
2023-01-29T21:03:06.225Z,100741.77
2023-01-29T21:05:34.348Z,100738.17
2023-01-29T21:08:05.171Z,100735.36
2023-01-29T21:10:34.385Z,100733.23
2023-01-29T21:13:04.583Z,100730.27
2023-01-29T21:15:32.863Z,100726.51
2023-01-29T21:18:12.457Z,100726.84
2023-01-29T21:21:10.511Z,100724.52
2023-01-29T21:23:54.950Z,100727.41
2023-01-29T21:26:38.466Z,100729.74
2023-01-29T21:29:16.894Z,100731.92
2023-01-29T21:31:47.596Z,100730.08
2023-01-29T21:34:17.633Z,100723.27
2023-01-29T21:36:47.253Z,100724.79
2023-01-29T21:39:24.532Z,100720.89
2023-01-29T21:42:13.528Z,100715.19
2023-01-29T21:44:50.669Z,100707.46
2023-01-29T21:47:22.355Z,100704.91
2023-01-29T21:49:50.398Z,100705.46
2023-01-29T21:52:18.497Z,100701.00
2023-01-29T21:54:49.013Z,100695.73
2023-01-29T21:57:19.651Z,100690.17
2023-01-29T21:59:55.476Z,100686.64
2023-01-29T22:02:24.077Z,100685.72
2023-01-29T22:05:08.721Z,100687.36
2023-01-29T22:07:50.035Z,100693.41
2023-01-29T22:10:21.466Z,100692.00
2023-01-29T22:12:55.388Z,100689.55
2023-01-29T22:15:24.889Z,100691.07
2023-01-29T22:17:53.191Z,100690.53
2023-01-29T22:20:33.227Z,100690.52
2023-01-29T22:23:06.064Z,100691.13
2023-01-29T22:25:44.337Z,100688.84
2023-01-29T22:28:12.471Z,100686.27
2023-01-29T22:30:41.355Z,100690.08
2023-01-29T22:33:10.499Z,100691.83
2023-01-29T22:35:38.917Z,100692.27
2023-01-29T22:38:07.849Z,100694.70
2023-01-29T22:40:43.241Z,100697.23
2023-01-29T22:47:56.288Z,100690.31
2023-01-29T22:51:17.789Z,100686.00
2023-01-29T22:54:02.003Z,100681.54
2023-01-29T22:56:42.790Z,100681.36
2023-01-29T22:59:27.078Z,100678.59
2023-01-29T23:02:14.843Z,100677.11
2023-01-29T23:05:00.045Z,100679.50
2023-01-29T23:07:28.430Z,100678.04
2023-01-29T23:10:07.809Z,100672.69
2023-01-29T23:12:41.169Z,100665.20
2023-01-29T23:15:12.341Z,100664.08
2023-01-29T23:17:43.049Z,100663.59
2023-01-29T23:20:13.529Z,100665.61
2023-01-29T23:22:45.645Z,100671.48
2023-01-29T23:25:18.594Z,100673.63
2023-01-29T23:27:53.850Z,100676.63
2023-01-29T23:30:26.620Z,100676.97
2023-01-29T23:33:05.538Z,100679.08
2023-01-29T23:35:51.782Z,100679.90
2023-01-29T23:38:40.753Z,100676.90
2023-01-29T23:41:49.184Z,100672.61
2023-01-29T23:45:29.885Z,100672.95
2023-01-29T23:48:09.939Z,100663.02
2023-01-29T23:52:23.649Z,100656.01
2023-01-29T23:55:12.761Z,100651.33
2023-01-29T23:57:44.025Z,100639.67
